LFPB 221130Z AUTO 21014KT CAVOK 12/04 Q1027 BECMG 22015G25KT

ElémentsDécodage
LFPB Station météo située sur l'aérodrome de PARIS Le-Bourget
221130Z émis le 22 du mois à 11h30 UTC
AUTO Bulletin édité par un automate
21014KT vent du 210°, 14 noeuds
CAVOK Ceiling And Visibility OK
- Visibilité de 10 Km ou plus
- Pas de nuage au-dessous de 1500m ou au-dessous de l'altitude minimale du secteur la plus élevée (si>1500m) et absence de CB
- pas de temps présent significatif
12/04 température 12°C, point de rosée 04°C
 soit une humidité relative de 58%
Q1027 la pression au niveau de la mer (QNH) est de 1027 hPa
BECMG fluctuation du temps prévue
22015G25KT vent du 220°, moyenne: 15 noeuds, avec rafales à 25 noeuds